CGUJS CYXU-CYQS
Flight info
| Callsign | CGUJS |
|---|---|
| Flight time | 0h 12m |
| Altitude | 4500 |
| Route | KSYR/CYQS |
| Aircraft | C172/L-VGD/A |
Departure
| Time | 2026-04-23 00:19 |
|---|---|
| Airport | London International Airport (CYXU) |
Arrival
| Time | 2026-04-23 00:32 |
|---|---|
| Airport | St Thomas Municipal Airport (CYQS) |
| Time | Latitude | Longitude | Altitude | Speed | Heading |
|---|---|---|---|---|---|
| 2026-04-23 00:03 | 43.03576 | -81.16196 | 904 ft | 0 kts | 79° |
| 2026-04-23 00:08 | 43.03576 | -81.16193 | 904 ft | 0 kts | 78° |
| 2026-04-23 00:08 | 43.03576 | -81.16191 | 904 ft | 0 kts | 76° |
| 2026-04-23 00:13 | 43.03616 | -81.16128 | 903 ft | 21 kts | 46° |
| 2026-04-23 00:13 | 43.03682 | -81.15896 | 901 ft | 29 kts | 79° |
| 2026-04-23 00:13 | 43.03689 | -81.15667 | 899 ft | 21 kts | 131° |
| 2026-04-23 00:13 | 43.03586 | -81.15552 | 899 ft | 19 kts | 139° |
| 2026-04-23 00:14 | 43.03490 | -81.15435 | 901 ft | 17 kts | 136° |
| 2026-04-23 00:14 | 43.03396 | -81.15322 | 901 ft | 20 kts | 139° |
| 2026-04-23 00:14 | 43.03282 | -81.15188 | 901 ft | 23 kts | 140° |
| 2026-04-23 00:14 | 43.03149 | -81.15027 | 897 ft | 28 kts | 137° |
| 2026-04-23 00:15 | 43.02997 | -81.14845 | 895 ft | 30 kts | 139° |
| 2026-04-23 00:15 | 43.02845 | -81.14662 | 897 ft | 29 kts | 138° |
| 2026-04-23 00:15 | 43.02696 | -81.14481 | 900 ft | 28 kts | 136° |
| 2026-04-23 00:15 | 43.02547 | -81.14303 | 897 ft | 29 kts | 137° |
| 2026-04-23 00:16 | 43.02393 | -81.14120 | 894 ft | 30 kts | 138° |
| 2026-04-23 00:16 | 43.02317 | -81.13965 | 894 ft | 15 kts | 61° |
| 2026-04-23 00:16 | 43.02344 | -81.13917 | 893 ft | 0 kts | 51° |
| 2026-04-23 00:18 | 43.02355 | -81.13901 | 893 ft | 15 kts | 46° |
| 2026-04-23 00:18 | 43.02468 | -81.13898 | 894 ft | 18 kts | 315° |
| 2026-04-23 00:18 | 43.02653 | -81.14118 | 899 ft | 60 kts | 318° |
| 2026-04-23 00:18 | 43.03054 | -81.14578 | 977 ft | 86 kts | 320° |
| 2026-04-23 00:19 | 43.03547 | -81.15147 | 1105 ft | 98 kts | 319° |
| 2026-04-23 00:19 | 43.04051 | -81.15755 | 1300 ft | 98 kts | 319° |
| 2026-04-23 00:19 | 43.04574 | -81.16387 | 1462 ft | 101 kts | 319° |
| 2026-04-23 00:19 | 43.05075 | -81.17046 | 1717 ft | 99 kts | 315° |
| 2026-04-23 00:20 | 43.05554 | -81.17709 | 1942 ft | 97 kts | 317° |
| 2026-04-23 00:20 | 43.06015 | -81.18387 | 2114 ft | 100 kts | 316° |
| 2026-04-23 00:20 | 43.06473 | -81.19099 | 2268 ft | 98 kts | 306° |
| 2026-04-23 00:20 | 43.06438 | -81.20011 | 2387 ft | 109 kts | 238° |
| 2026-04-23 00:21 | 43.05741 | -81.20382 | 2497 ft | 116 kts | 177° |
| 2026-04-23 00:21 | 43.04931 | -81.20089 | 2524 ft | 122 kts | 166° |
| 2026-04-23 00:21 | 43.04144 | -81.19766 | 2697 ft | 115 kts | 164° |
| 2026-04-23 00:21 | 43.03404 | -81.19438 | 2941 ft | 110 kts | 163° |
| 2026-04-23 00:22 | 43.02683 | -81.19102 | 3154 ft | 111 kts | 164° |
| 2026-04-23 00:22 | 43.01921 | -81.18780 | 3287 ft | 117 kts | 167° |
| 2026-04-23 00:22 | 43.01127 | -81.18483 | 3440 ft | 120 kts | 169° |
| 2026-04-23 00:22 | 43.00307 | -81.18189 | 3548 ft | 126 kts | 169° |
| 2026-04-23 00:23 | 42.99439 | -81.17872 | 3611 ft | 131 kts | 169° |
| 2026-04-23 00:23 | 42.98545 | -81.17527 | 3626 ft | 136 kts | 166° |
| 2026-04-23 00:23 | 42.97644 | -81.17146 | 3715 ft | 133 kts | 168° |
| 2026-04-23 00:23 | 42.96755 | -81.16772 | 3685 ft | 135 kts | 166° |
| 2026-04-23 00:24 | 42.95868 | -81.16430 | 3670 ft | 136 kts | 169° |
| 2026-04-23 00:24 | 42.94930 | -81.16125 | 3650 ft | 136 kts | 171° |
| 2026-04-23 00:24 | 42.94038 | -81.15792 | 3669 ft | 134 kts | 167° |
| 2026-04-23 00:24 | 42.93136 | -81.15438 | 3618 ft | 137 kts | 167° |
| 2026-04-23 00:25 | 42.92230 | -81.15035 | 3583 ft | 136 kts | 171° |
| 2026-04-23 00:25 | 42.91302 | -81.15134 | 3364 ft | 142 kts | 200° |
| 2026-04-23 00:25 | 42.90352 | -81.15176 | 3469 ft | 130 kts | 181° |
| 2026-04-23 00:25 | 42.89450 | -81.15015 | 3411 ft | 136 kts | 175° |
| 2026-04-23 00:26 | 42.88510 | -81.14776 | 3400 ft | 134 kts | 172° |
| 2026-04-23 00:26 | 42.87627 | -81.14496 | 3461 ft | 130 kts | 172° |
| 2026-04-23 00:26 | 42.86724 | -81.14227 | 3417 ft | 133 kts | 171° |
| 2026-04-23 00:26 | 42.85843 | -81.13896 | 3435 ft | 131 kts | 168° |
| 2026-04-23 00:27 | 42.84956 | -81.13531 | 3404 ft | 133 kts | 167° |
| 2026-04-23 00:27 | 42.84061 | -81.13273 | 3380 ft | 131 kts | 178° |
| 2026-04-23 00:27 | 42.83160 | -81.13131 | 3390 ft | 129 kts | 176° |
| 2026-04-23 00:27 | 42.82270 | -81.12962 | 3358 ft | 131 kts | 175° |
| 2026-04-23 00:28 | 42.81354 | -81.12835 | 3331 ft | 132 kts | 174° |
| 2026-04-23 00:28 | 42.80468 | -81.12634 | 3353 ft | 128 kts | 174° |
| 2026-04-23 00:28 | 42.79567 | -81.12532 | 3214 ft | 132 kts | 184° |
| 2026-04-23 00:28 | 42.78687 | -81.12481 | 3071 ft | 120 kts | 178° |
| 2026-04-23 00:29 | 42.77876 | -81.12340 | 2799 ft | 116 kts | 175° |
| 2026-04-23 00:29 | 42.77091 | -81.12168 | 2474 ft | 114 kts | 168° |
| 2026-04-23 00:29 | 42.76526 | -81.11510 | 2206 ft | 107 kts | 110° |
| 2026-04-23 00:29 | 42.76268 | -81.10562 | 1885 ft | 105 kts | 103° |
| 2026-04-23 00:30 | 42.76023 | -81.09661 | 1694 ft | 96 kts | 100° |
| 2026-04-23 00:30 | 42.75879 | -81.08870 | 1673 ft | 80 kts | 89° |
| 2026-04-23 00:30 | 42.75885 | -81.08169 | 1630 ft | 66 kts | 43° |
| 2026-04-23 00:30 | 42.76295 | -81.08072 | 1503 ft | 69 kts | 353° |
| 2026-04-23 00:31 | 42.76804 | -81.08122 | 1388 ft | 76 kts | 351° |
| 2026-04-23 00:31 | 42.77219 | -81.08523 | 1124 ft | 82 kts | 301° |
| 2026-04-23 00:31 | 42.77389 | -81.09213 | 978 ft | 75 kts | 276° |
| 2026-04-23 00:31 | 42.77365 | -81.09879 | 828 ft | 62 kts | 273° |
| 2026-04-23 00:32 | 42.77342 | -81.10359 | 773 ft | 39 kts | 266° |
| 2026-04-23 00:32 | 42.77314 | -81.10771 | 775 ft | 64 kts | 266° |
| 2026-04-23 00:32 | 42.77237 | -81.11472 | 956 ft | 77 kts | 263° |
| 2026-04-23 00:32 | 42.77219 | -81.12185 | 1170 ft | 79 kts | 302° |
| 2026-04-23 00:33 | 42.77746 | -81.12400 | 1235 ft | 95 kts | 358° |
| 2026-04-23 00:33 | 42.78433 | -81.12405 | 1399 ft | 100 kts | 359° |
| 2026-04-23 00:33 | 42.79138 | -81.12419 | 1567 ft | 101 kts | 3° |
| 2026-04-23 00:33 | 42.79805 | -81.12283 | 1818 ft | 93 kts | 9° |
| 2026-04-23 00:34 | 42.80442 | -81.12102 | 1991 ft | 94 kts | 11° |
| 2026-04-23 00:34 | 42.81076 | -81.11932 | 2176 ft | 98 kts | 9° |
| 2026-04-23 00:34 | 42.81520 | -81.11785 | 2274 ft | 101 kts | 11° |